Time;durP1;ratioP1;P1;durP2;ratioP2;P2;SDS_P1;SDS_P2;PMS_P1;PMS_P2;Temp;Humidity;BMP_temperature;BMP_pressure;BME280_temperature;BME280_humidity;BME280_pressure;Samples;Min_cycle;Max_cycle;Signal;HPM_P1;HPM_P2
2023/10/11 00:01:23;;;;;;;5.00;2.33;;;16.60;99.90;;;16.93;100.00;101023.69;5242714;28;20135;-52
2023/10/11 00:03:58;;;;;;;5.57;2.40;;;16.60;99.90;;;16.89;100.00;101032.44;5243344;28;20427;-52
2023/10/11 00:06:33;;;;;;;3.83;1.92;;;16.60;99.90;;;16.87;100.00;101022.72;5237880;28;20045;-49
2023/10/11 00:09:12;;;;;;;4.30;1.90;;;16.50;99.90;;;16.85;100.00;101024.47;5243691;28;20049;-50
2023/10/11 00:11:45;;;;;;;4.15;1.90;;;16.50;99.90;;;16.80;100.00;101011.22;5218580;28;20057;-50
2023/10/11 00:14:19;;;;;;;4.82;1.85;;;16.50;99.90;;;16.79;100.00;101020.88;5220643;28;20131;-49
2023/10/11 00:16:53;;;;;;;4.18;1.80;;;16.50;99.90;;;16.76;100.00;101014.72;5224168;28;20136;-49
2023/10/11 00:19:29;;;;;;;3.58;2.10;;;16.50;99.90;;;16.73;100.00;101019.91;5232437;28;20043;-50
2023/10/11 00:22:05;;;;;;;4.15;1.80;;;16.40;99.90;;;16.70;100.00;101014.63;5226154;28;20037;-51
2023/10/11 00:24:38;;;;;;;4.43;1.90;;;16.40;99.90;;;16.66;100.00;101012.75;5222802;28;20064;-49
2023/10/11 00:27:10;;;;;;;3.90;2.22;;;16.40;99.90;;;16.63;100.00;101007.47;5223786;28;20106;-51
2023/10/11 00:29:43;;;;;;;4.32;2.00;;;16.30;99.90;;;16.60;100.00;101013.56;5223854;28;20051;-50
2023/10/11 00:32:15;;;;;;;2.90;1.67;;;16.30;99.90;;;16.57;100.00;101015.28;5224265;28;20049;-50
2023/10/11 00:34:47;;;;;;;4.07;1.83;;;16.20;99.90;;;16.54;100.00;101014.34;5224641;28;20478;-49
2023/10/11 00:37:22;;;;;;;4.47;1.95;;;16.20;99.90;;;16.52;100.00;101009.94;5224236;28;20134;-50
2023/10/11 00:39:54;;;;;;;4.55;2.00;;;16.20;99.90;;;16.49;100.00;101013.41;5246525;28;20065;-50
2023/10/11 00:42:27;;;;;;;4.53;2.10;;;16.20;99.90;;;16.48;100.00;101013.38;5241881;28;20049;-50
2023/10/11 00:45:02;;;;;;;3.65;2.00;;;16.20;99.90;;;16.47;100.00;101012.50;5225246;28;20102;-49
2023/10/11 00:47:40;;;;;;;;;;;16.20;99.90;;;16.46;100.00;101004.59;5223534;28;20048;-50
2023/10/11 00:50:15;;;;;;;3.92;2.13;;;16.20;99.90;;;16.45;100.00;101008.97;5225346;28;20458;-52
2023/10/11 00:52:50;;;;;;;5.18;2.10;;;16.10;99.90;;;16.47;100.00;101004.63;5225224;28;20644;-50
2023/10/11 00:55:23;;;;;;;3.78;1.80;;;16.20;99.90;;;16.48;100.00;101002.88;5224754;28;20052;-51
2023/10/11 00:57:56;;;;;;;4.18;1.90;;;16.20;99.90;;;16.49;100.00;101002.88;5222632;28;20048;-52
2023/10/11 01:00:35;;;;;;;4.93;2.25;;;16.20;99.90;;;16.48;100.00;101001.13;5241050;28;20094;-49
2023/10/11 01:03:13;;;;;;;4.60;2.30;;;16.20;99.90;;;16.46;100.00;100997.59;5223638;28;20480;-49
2023/10/11 01:05:48;;;;;;;5.05;2.28;;;16.20;99.90;;;16.46;100.00;100994.06;5238802;28;20148;-50
2023/10/11 01:08:22;;;;;;;5.15;2.03;;;16.20;99.90;;;16.47;100.00;100996.72;5224809;28;20041;-49
2023/10/11 01:10:58;;;;;;;3.58;2.10;;;16.20;99.90;;;16.50;100.00;100994.16;5220323;28;20204;-52
2023/10/11 01:13:30;;;;;;;3.47;1.80;;;16.20;99.90;;;16.50;100.00;101002.03;5243261;28;20040;-50
2023/10/11 01:16:05;;;;;;;4.97;2.42;;;16.20;99.90;;;16.49;100.00;100994.97;5243454;28;20678;-51
2023/10/11 01:18:38;;;;;;;4.93;2.35;;;16.20;99.90;;;16.52;100.00;100992.41;5238958;28;20405;-50
2023/10/11 01:21:19;;;;;;;3.88;1.92;;;16.20;99.90;;;16.59;100.00;100989.88;5224077;28;20048;-51
2023/10/11 01:23:51;;;;;;;5.15;2.13;;;16.30;99.90;;;16.63;100.00;100981.16;5242208;28;20143;-52
2023/10/11 01:26:23;;;;;;;4.32;2.03;;;16.30;99.90;;;16.67;100.00;100989.09;5225215;28;20466;-51
2023/10/11 01:28:59;;;;;;;5.22;2.10;;;16.40;99.90;;;16.69;100.00;100982.13;5225844;28;20055;-51
2023/10/11 01:31:33;;;;;;;5.43;2.10;;;16.40;99.90;;;16.74;100.00;100984.81;5210554;28;20052;-52
2023/10/11 01:34:06;;;;;;;5.50;2.08;;;16.40;99.90;;;16.75;100.00;100976.06;5224899;28;20044;-51
2023/10/11 01:36:40;;;;;;;3.40;1.90;;;16.40;99.90;;;16.79;100.00;100975.25;5221744;28;20061;-51
2023/10/11 01:39:12;;;;;;;3.90;1.85;;;16.50;99.90;;;16.83;100.00;100971.78;5224998;28;20048;-48
2023/10/11 01:41:45;;;;;;;4.05;2.10;;;16.50;99.90;;;16.84;100.00;100978.81;5243196;28;20051;-51
2023/10/11 01:44:18;;;;;;;3.90;2.08;;;16.50;99.90;;;16.83;100.00;100969.16;5241234;28;20055;-52
2023/10/11 01:46:50;;;;;;;3.35;1.77;;;16.50;99.90;;;16.82;100.00;100964.72;5241150;28;20040;-49
2023/10/11 01:49:25;;;;;;;3.92;2.00;;;16.50;99.90;;;16.80;100.00;100966.47;5239164;28;20057;-49
2023/10/11 01:51:59;;;;;;;4.45;1.88;;;16.50;99.90;;;16.78;100.00;100970.84;5220692;28;20064;-50
2023/10/11 01:54:32;;;;;;;4.03;1.70;;;16.50;99.90;;;16.78;100.00;100965.59;5243768;28;20044;-50
2023/10/11 01:57:10;;;;;;;4.75;2.00;;;16.50;99.90;;;16.78;100.00;100963.84;5212791;28;20507;-51
2023/10/11 01:59:42;;;;;;;3.47;1.80;;;16.50;99.90;;;16.82;100.00;100962.09;5253318;28;20147;-51
2023/10/11 02:02:15;;;;;;;3.13;1.65;;;16.50;99.90;;;16.82;100.00;100962.09;5217644;28;20044;-50
2023/10/11 02:04:47;;;;;;;3.05;1.60;;;16.50;99.90;;;16.85;100.00;100958.63;5225840;28;20055;-50
2023/10/11 02:07:25;;;;;;;3.63;2.08;;;16.50;99.90;;;16.87;100.00;100956.91;5241988;28;20442;-50
2023/10/11 02:09:57;;;;;;;4.57;1.65;;;16.50;99.90;;;16.88;100.00;100945.50;5218939;28;20051;-49
2023/10/11 02:12:30;;;;;;;4.60;2.20;;;16.60;99.90;;;16.89;100.00;100942.91;5225332;28;20048;-50
2023/10/11 02:15:07;;;;;;;5.10;1.83;;;16.60;99.90;;;16.92;100.00;100948.19;5218468;28;20064;-49
2023/10/11 02:17:40;;;;;;;4.95;2.05;;;16.60;99.90;;;16.92;100.00;100931.50;5238933;28;20123;-48
2023/10/11 02:20:20;;;;;;;4.05;2.00;;;16.60;99.90;;;16.91;100.00;100932.38;5217203;28;20403;-51
2023/10/11 02:22:55;;;;;;;3.47;1.65;;;16.60;99.90;;;16.85;100.00;100933.19;5233513;28;20044;-49
2023/10/11 02:25:34;;;;;;;3.70;1.50;;;16.60;99.90;;;16.83;100.00;100932.31;5214999;28;20052;-50
2023/10/11 02:28:09;;;;;;;3.15;1.60;;;16.50;99.90;;;16.82;100.00;100925.25;5237727;28;20048;-50
2023/10/11 02:30:42;;;;;;;1.90;1.30;;;16.50;99.90;;;16.81;100.00;100929.63;5232837;28;20052;-52
2023/10/11 02:33:20;;;;;;;8.13;2.67;;;16.50;99.90;;;16.80;100.00;100932.25;5239693;28;20036;-49
2023/10/11 02:35:56;;;;;;;3.70;1.83;;;16.50;99.90;;;16.79;100.00;100939.28;5239557;28;20134;-50
2023/10/11 02:38:30;;;;;;;4.68;1.60;;;16.50;99.90;;;16.77;100.00;100938.38;5218367;28;20051;-52
2023/10/11 02:41:03;;;;;;;3.25;1.75;;;16.50;99.90;;;16.78;100.00;100934.88;5224792;28;20533;-51
2023/10/11 02:43:47;;;;;;;2.17;1.50;;;16.50;99.90;;;16.79;100.00;100923.47;5214301;28;20071;-51
2023/10/11 02:46:23;;;;;;;3.88;1.75;;;16.50;99.90;;;16.82;100.00;100930.50;5241142;28;20049;-50
2023/10/11 02:49:05;;;;;;;3.80;1.83;;;16.50;99.90;;;16.77;100.00;100926.97;5232246;28;20044;-52
2023/10/11 02:51:51;;;;;;;4.05;1.85;;;16.50;99.90;;;16.71;100.00;100932.16;5234879;28;20052;-49
2023/10/11 02:54:33;;;;;;;3.78;1.95;;;16.40;99.90;;;16.65;100.00;100934.69;5235008;28;20040;-52
2023/10/11 02:57:07;;;;;;;4.05;1.67;;;16.30;99.90;;;16.60;100.00;100931.09;5223143;28;20250;-50
2023/10/11 02:59:44;;;;;;;5.32;1.70;;;16.30;99.90;;;16.53;100.00;100925.75;5214357;28;20049;-51
2023/10/11 03:02:16;;;;;;;3.58;1.80;;;16.30;99.90;;;16.49;100.00;100931.84;5238548;28;20051;-51
2023/10/11 03:04:50;;;;;;;4.25;1.73;;;16.20;99.90;;;16.45;100.00;100935.31;5233229;28;20060;-49
2023/10/11 03:07:26;;;;;;;4.30;2.00;;;16.20;99.90;;;16.40;100.00;100929.09;5222927;28;20044;-50
2023/10/11 03:10:00;;;;;;;3.67;1.88;;;16.10;99.90;;;16.37;100.00;100934.34;5217828;28;20064;-50
2023/10/11 03:12:38;;;;;;;3.25;1.67;;;16.10;99.90;;;16.31;100.00;100944.78;5217982;28;20040;-51
2023/10/11 03:15:19;;;;;;;3.50;1.67;;;16.00;99.90;;;16.20;100.00;100938.47;5239793;28;20129;-50
2023/10/11 03:17:52;;;;;;;4.63;2.28;;;15.90;99.90;;;16.11;100.00;100938.34;5233379;28;20213;-50
2023/10/11 03:20:26;;;;;;;3.22;1.75;;;15.80;99.90;;;16.05;100.00;100943.50;5228294;28;20051;-50
2023/10/11 03:23:03;;;;;;;3.95;2.33;;;15.80;99.90;;;15.96;100.00;100934.59;5240633;28;20044;-52
2023/10/11 03:25:44;;;;;;;3.40;1.77;;;15.70;99.90;;;15.88;100.00;100936.25;5231032;28;20133;-51
2023/10/11 03:28:25;;;;;;;;;;;15.60;99.90;;;15.78;100.00;100933.44;5240384;28;20044;-50
2023/10/11 03:30:58;;;;;;;3.58;1.90;;;15.50;99.90;;;15.70;100.00;100933.31;5219666;28;19925;-51
2023/10/11 03:33:36;;;;;;;6.00;2.17;;;15.50;99.90;;;15.64;100.00;100925.34;5223966;28;20541;-49
2023/10/11 03:36:18;;;;;;;3.85;2.15;;;15.40;99.90;;;15.59;100.00;100921.75;5236623;28;20400;-49
2023/10/11 03:38:52;;;;;;;4.38;2.00;;;15.30;99.90;;;15.57;100.00;100920.81;5232704;28;20173;-51
2023/10/11 03:41:29;;;;;;;4.35;1.80;;;15.30;99.90;;;15.54;100.00;100924.28;5234438;28;20060;-49
2023/10/11 03:44:10;;;;;;;4.10;1.90;;;15.30;99.90;;;15.51;100.00;100918.06;5224008;28;20473;-50
2023/10/11 03:46:47;;;;;;;5.68;2.10;;;15.20;99.90;;;15.45;100.00;100916.22;5212511;28;20423;-50
2023/10/11 03:49:49;;;;;;;5.70;2.22;;;15.20;99.90;;;15.39;100.00;100917.03;5224094;28;20114;-51
2023/10/11 03:52:25;;;;;;;4.13;1.92;;;15.10;99.90;;;15.33;100.00;100923.91;5234148;28;20040;-51
2023/10/11 03:55:09;;;;;;;5.47;2.03;;;15.10;99.90;;;15.28;100.00;100930.81;5224080;28;20048;-49
2023/10/11 03:57:50;;;;;;;6.32;2.20;;;15.10;99.90;;;15.22;100.00;100930.72;5217319;28;20109;-50
2023/10/11 04:00:27;;;;;;;4.70;2.53;;;15.00;99.90;;;15.16;100.00;100931.47;5233897;28;20431;-50
2023/10/11 04:03:03;;;;;;;4.95;2.10;;;14.90;99.90;;;15.11;100.00;100933.13;5210496;28;20136;-50
2023/10/11 04:05:39;;;;;;;5.00;2.10;;;14.90;99.90;;;15.08;100.00;100923.47;5214534;28;20037;-50
2023/10/11 04:08:12;;;;;;;5.53;1.90;;;14.80;99.90;;;15.07;100.00;100931.34;5237216;28;20139;-52
2023/10/11 04:10:49;;;;;;;4.60;2.10;;;14.80;99.90;;;15.04;100.00;100926.00;5221009;28;20503;-49
2023/10/11 04:13:26;;;;;;;4.55;2.15;;;14.80;99.90;;;15.02;100.00;100925.97;5236529;28;20504;-49
2023/10/11 04:15:59;;;;;;;3.15;1.60;;;14.80;99.90;;;14.98;100.00;100916.28;5240955;28;20080;-51
2023/10/11 04:18:37;;;;;;;3.75;2.00;;;14.70;99.90;;;14.98;100.00;100926.78;5223528;28;20044;-49
2023/10/11 04:24:06;;;;;;;6.35;2.20;;;14.70;99.90;;;14.90;100.00;100918.75;5183417;28;20054;-50
2023/10/11 04:26:39;;;;;;;6.68;2.22;;;14.70;99.90;;;14.88;100.00;100917.84;5227564;28;20071;-52
2023/10/11 04:29:17;;;;;;;4.00;1.95;;;14.60;99.90;;;14.84;100.00;100918.63;5235194;28;20052;-52
2023/10/11 04:32:09;;;;;;;4.97;1.98;;;14.60;99.90;;;14.81;100.00;100929.09;5235623;28;20053;-51
2023/10/11 04:34:48;;;;;;;6.28;2.30;;;14.50;99.90;;;14.77;100.00;100922.00;5231737;28;20538;-50
2023/10/11 04:37:29;;;;;;;5.50;2.47;;;14.50;99.90;;;14.75;100.00;100923.72;5217773;28;20720;-52
2023/10/11 04:40:22;;;;;;;3.53;1.90;;;14.50;99.90;;;14.74;100.00;100921.94;5238035;28;20077;-50
2023/10/11 04:43:05;;;;;;;4.38;1.98;;;14.50;99.90;;;14.74;100.00;100914.09;5236876;28;20052;-51
2023/10/11 04:45:45;;;;;;;4.07;1.88;;;14.50;99.90;;;14.76;100.00;100935.09;5221092;28;20135;-51
2023/10/11 04:48:29;;;;;;;5.43;2.30;;;14.50;99.90;;;14.75;100.00;100923.72;5223548;28;20056;-49
2023/10/11 04:51:07;;;;;;;4.70;2.00;;;14.50;99.90;;;14.80;100.00;100922.06;5240600;28;20044;-50
2023/10/11 04:53:47;;;;;;;5.13;2.35;;;14.50;99.90;;;14.88;100.00;100915.22;5233867;28;20040;-49
2023/10/11 04:59:07;;;;;;;4.18;1.67;;;14.70;99.90;;;15.17;100.00;100917.50;5226498;28;20066;-49
2023/10/11 05:01:58;;;;;;;4.53;1.80;;;15.00;99.90;;;15.31;100.00;100920.38;5234633;28;20515;-52
2023/10/11 05:04:33;;;;;;;3.58;1.67;;;15.00;99.90;;;15.43;100.00;100916.22;5231790;28;20052;-50
2023/10/11 05:07:08;;;;;;;4.85;2.05;;;15.20;99.90;;;15.57;100.00;100912.94;5232264;28;20047;-51
2023/10/11 05:09:52;;;;;;;4.30;1.88;;;15.30;99.90;;;15.67;100.00;100923.66;5219605;28;20043;-49
2023/10/11 05:12:25;;;;;;;4.75;2.05;;;15.40;99.90;;;15.77;100.00;100918.53;5231072;28;20040;-51
2023/10/11 05:15:00;;;;;;;4.95;2.28;;;15.50;99.90;;;15.84;100.00;100913.38;5242889;28;20052;-51
2023/10/11 05:17:39;;;;;;;4.68;2.10;;;15.60;99.90;;;15.91;100.00;100907.38;5225758;28;20067;-51
2023/10/11 05:20:23;;;;;;;4.78;2.10;;;15.70;99.90;;;15.97;100.00;100931.13;5212304;28;20068;-50
2023/10/11 05:23:05;;;;;;;5.85;2.30;;;15.70;99.90;;;16.05;100.00;100917.22;5242475;28;20072;-50
2023/10/11 05:28:27;;;;;;;6.00;2.38;;;15.90;99.90;;;16.14;100.00;100923.47;5228748;28;20083;-50
2023/10/11 05:31:19;;;;;;;5.50;2.10;;;15.90;99.90;;;16.20;100.00;100935.84;5232432;28;20048;-50
2023/10/11 05:34:29;;;;;;;5.68;2.67;;;16.00;99.90;;;16.23;100.00;100922.72;5219633;28;20291;-49
2023/10/11 05:50:59;;;;;;;5.05;2.00;;;16.10;99.90;;;16.36;100.00;100929.91;5235157;28;20057;-51
2023/10/11 05:53:35;;;;;;;5.53;2.20;;;16.20;99.90;;;16.38;100.00;100945.72;5215062;28;20053;-49
2023/10/11 05:56:08;;;;;;;5.63;2.30;;;16.20;99.90;;;16.40;100.00;100941.38;5237884;28;20143;-50
2023/10/11 05:58:42;;;;;;;4.55;2.03;;;16.20;99.90;;;16.41;100.00;100945.75;5230299;28;20044;-50
2023/10/11 06:01:15;;;;;;;3.97;1.90;;;16.20;99.90;;;16.41;100.00;100938.75;5238404;28;20048;-50
2023/10/11 06:03:48;;;;;;;7.50;2.72;;;16.20;99.90;;;16.43;100.00;100937.03;5233579;28;20060;-51
2023/10/11 06:06:27;;;;;;;5.70;2.22;;;16.20;99.90;;;16.45;100.00;100923.91;5240385;28;20055;-51
2023/10/11 06:09:01;;;;;;;5.55;2.40;;;16.20;99.90;;;16.46;100.00;100920.41;5208998;28;20045;-50
2023/10/11 06:11:37;;;;;;;5.18;2.40;;;16.20;99.90;;;16.47;100.00;100925.69;5224907;28;20131;-49
2023/10/11 06:14:13;;;;;;;8.13;2.63;;;16.30;99.90;;;16.48;100.00;100932.69;5216915;28;20129;-51
2023/10/11 06:16:56;;;;;;;6.22;2.95;;;16.30;99.90;;;16.51;100.00;100930.13;5224008;28;20053;-48
2023/10/11 06:19:29;;;;;;;4.30;2.00;;;16.30;99.90;;;16.53;100.00;100936.28;5231113;28;20040;-49
2023/10/11 06:22:09;;;;;;;5.75;2.03;;;16.30;99.90;;;16.71;100.00;100934.78;5231214;28;20579;-50
2023/10/11 06:24:44;;;;;;;8.38;2.90;;;16.50;99.90;;;16.77;100.00;100951.53;5233546;28;20045;-51
2023/10/11 06:30:09;;;;;;;6.40;2.60;;;16.60;99.90;;;16.79;100.00;100954.19;5235613;28;20057;-50
2023/10/11 06:32:42;;;;;;;5.75;2.40;;;16.60;99.90;;;16.79;100.00;100941.91;5219001;28;20129;-51
2023/10/11 06:35:23;;;;;;;4.63;2.25;;;16.60;99.90;;;16.79;100.00;100941.03;5240563;28;20143;-49
2023/10/11 06:38:00;;;;;;;5.57;2.33;;;16.60;99.90;;;16.82;100.00;100941.03;5234076;28;20044;-52
2023/10/11 06:40:38;;;;;;;6.45;2.58;;;16.60;99.90;;;16.87;100.00;100934.09;5222722;28;20044;-52
2023/10/11 06:43:12;;;;;;;6.43;2.78;;;16.70;99.90;;;16.97;100.00;100943.88;5216270;28;20171;-52
2023/10/11 06:45:49;;;;;;;6.22;2.38;;;16.70;99.90;;;17.15;100.00;100942.28;5237804;28;20120;-50
2023/10/11 06:48:25;;;;;;;7.50;2.35;;;16.90;99.90;;;17.56;100.00;100938.28;5221856;28;21923;-50
2023/10/11 06:50:59;;;;;;;8.23;3.25;;;17.20;99.90;;;18.07;100.00;100942.25;5226216;28;20049;-50
2023/10/11 06:53:33;;;;;;;6.25;2.47;;;17.60;99.90;;;18.61;100.00;100935.47;5224189;28;20127;-50
2023/10/11 06:56:05;;;;;;;6.88;2.35;;;18.10;99.90;;;18.97;100.00;100928.56;5237752;28;20053;-49
2023/10/11 06:58:44;;;;;;;6.55;2.80;;;18.40;99.90;;;19.20;100.00;100937.44;5238928;28;20040;-50
2023/10/11 07:01:16;;;;;;;6.30;2.88;;;18.80;99.90;;;19.37;100.00;100942.78;5224568;28;20415;-50
2023/10/11 07:03:52;;;;;;;6.45;2.83;;;19.00;99.90;;;19.41;100.00;100936.59;5229956;28;20058;-50
2023/10/11 07:06:24;;;;;;;6.55;2.38;;;19.10;99.90;;;19.40;100.00;100934.84;5237707;28;20044;-50
2023/10/11 07:08:58;;;;;;;5.07;2.60;;;19.10;99.90;;;19.43;100.00;100939.22;5241082;28;20055;-49
2023/10/11 07:11:50;;;;;;;6.20;2.85;;;19.20;99.90;;;19.46;100.00;100944.53;5242641;28;20044;-51
2023/10/11 07:14:25;;;;;;;7.70;2.63;;;19.20;99.90;;;19.44;100.00;100954.22;5233921;28;20144;-49
2023/10/11 07:17:00;;;;;;;7.60;2.42;;;19.20;99.90;;;19.39;100.00;100948.94;5234105;28;20045;-49
2023/10/11 07:19:36;;;;;;;5.95;2.58;;;19.10;99.90;;;19.32;100.00;100951.56;5228278;28;20063;-48
2023/10/11 07:22:12;;;;;;;6.53;2.55;;;19.10;99.90;;;19.23;100.00;100963.91;5231864;28;20059;-49
2023/10/11 07:24:55;;;;;;;6.72;2.50;;;19.00;99.90;;;19.20;100.00;100960.34;5238891;28;20047;-49
2023/10/11 07:27:37;;;;;;;7.43;2.75;;;18.90;99.90;;;19.23;100.00;100961.25;5223451;28;20092;-49
2023/10/11 07:30:16;;;;;;;6.32;2.35;;;18.90;99.90;;;19.29;100.00;100959.47;5231193;28;20029;-49
2023/10/11 07:32:50;;;;;;;5.25;2.50;;;18.90;99.90;;;19.36;100.00;100961.25;5232379;28;20135;-49
2023/10/11 07:35:27;;;;;;;6.40;2.30;;;19.00;99.90;;;19.40;100.00;100957.75;5237960;28;20063;-49
2023/10/11 07:38:01;;;;;;;7.78;2.55;;;19.00;99.90;;;19.44;100.00;100967.44;5237583;28;20037;-49
2023/10/11 07:40:45;;;;;;;5.53;2.70;;;19.00;99.90;;;19.47;100.00;100968.31;5244571;28;20082;-49
2023/10/11 07:43:18;;;;;;;5.72;2.15;;;19.00;99.90;;;19.54;100.00;100969.22;5232915;28;20052;-48
2023/10/11 07:45:50;;;;;;;7.40;2.53;;;19.10;99.90;;;19.57;100.00;100963.06;5241933;28;20040;-49
2023/10/11 07:48:22;;;;;;;5.47;2.20;;;19.10;99.90;;;19.59;100.00;100962.19;5237527;28;20056;-49
2023/10/11 07:50:55;;;;;;;7.68;2.53;;;19.10;99.90;;;19.63;100.00;100960.44;5238402;28;20045;-50
2023/10/11 07:53:27;;;;;;;5.28;2.13;;;19.10;99.90;;;19.69;100.00;100966.63;5241639;28;20125;-49
2023/10/11 07:56:03;;;;;;;4.68;2.55;;;19.20;99.90;;;19.85;100.00;100958.69;5241659;28;20455;-47
2023/10/11 07:58:35;;;;;;;10.80;2.83;;;19.30;99.90;;;20.06;100.00;100953.34;5220712;28;20086;-50
2023/10/11 08:01:15;;;;;;;7.30;2.65;;;19.40;99.90;;;20.37;100.00;100950.66;5220872;28;20049;-49
2023/10/11 08:03:47;;;;;;;6.95;2.78;;;19.60;99.90;;;20.72;100.00;100956.72;5221731;28;20392;-48
2023/10/11 08:06:24;;;;;;;7.95;2.63;;;19.90;99.90;;;21.11;98.28;100949.47;5228433;28;20135;-49
2023/10/11 08:08:59;;;;;;;7.55;2.50;;;20.20;99.90;;;21.44;97.14;100952.81;5227640;28;20037;-49
2023/10/11 08:11:44;;;;;;;7.13;2.20;;;20.50;99.90;;;21.84;94.89;100953.34;5227288;28;20102;-49
2023/10/11 08:14:21;;;;;;;4.97;2.20;;;20.80;99.90;;;22.35;92.80;100952.00;5226642;28;20068;-49
2023/10/11 08:16:56;;;;;;;7.47;3.13;;;21.10;99.90;;;22.93;90.15;100947.78;5223402;28;20048;-49
2023/10/11 08:19:28;;;;;;;;;;;21.50;99.90;;;23.41;88.93;100946.19;5244540;28;20051;-49
2023/10/11 08:22:06;;;;;;;7.15;2.65;;;21.90;99.40;;;24.03;85.95;100938.94;5226497;28;19974;-50
2023/10/11 08:24:46;;;;;;;7.10;2.30;;;22.40;98.50;;;24.58;83.86;100945.91;5244195;28;20079;-50
2023/10/11 08:27:27;;;;;;;7.60;2.47;;;23.00;97.60;;;25.09;81.60;100943.03;5226249;28;20053;-49
2023/10/11 08:30:08;;;;;;;7.97;2.22;;;23.50;96.60;;;25.44;79.65;100946.69;5227484;28;20048;-50
2023/10/11 08:32:43;;;;;;;8.30;3.00;;;24.00;95.50;;;25.53;78.26;100949.13;5221911;28;20475;-51
2023/10/11 08:35:17;;;;;;;4.85;2.38;;;24.20;94.50;;;25.57;77.98;100945.47;5226988;28;20048;-50
2023/10/11 08:37:53;;;;;;;6.55;2.50;;;24.40;94.00;;;25.62;77.78;100951.56;5226841;28;20044;-52
2023/10/11 08:40:34;;;;;;;5.28;2.08;;;24.50;93.50;;;25.70;77.43;100949.59;5226269;28;20072;-49
2023/10/11 08:43:09;;;;;;;4.97;2.60;;;24.60;93.20;;;25.59;77.43;100932.97;5220023;28;20791;-49
2023/10/11 08:45:49;;;;;;;6.63;2.40;;;24.70;92.80;;;25.41;77.69;100930.75;5222872;28;20056;-49
2023/10/11 08:48:24;;;;;;;6.30;2.17;;;24.60;92.50;;;25.16;77.81;100925.09;5220182;28;20081;-50
2023/10/11 08:50:57;;;;;;;5.75;2.33;;;24.50;92.30;;;25.00;78.64;100929.03;5223509;28;20032;-49
2023/10/11 08:53:31;;;;;;;5.13;2.30;;;24.30;92.50;;;24.90;79.12;100917.66;5229889;28;20055;-49
2023/10/11 08:56:03;;;;;;;6.13;2.22;;;24.20;92.50;;;24.82;78.99;100917.84;5214536;28;20053;-49
2023/10/11 08:58:37;;;;;;;5.68;2.42;;;24.20;92.40;;;24.80;79.44;100924.13;5223220;28;20144;-50
2023/10/11 09:01:09;;;;;;;5.90;2.58;;;24.10;92.40;;;24.83;79.22;100921.38;5219876;28;20060;-50
2023/10/11 09:03:42;;;;;;;5.30;2.40;;;24.10;92.50;;;24.79;79.27;100925.06;5227219;28;20056;-51
2023/10/11 09:06:21;;;;;;;5.25;2.42;;;24.10;92.40;;;24.79;79.32;100927.72;5221967;28;20510;-49
2023/10/11 09:09:00;;;;;;;9.32;2.50;;;24.10;92.50;;;24.69;79.44;100923.47;5223014;28;20051;-49
2023/10/11 09:11:32;;;;;;;5.90;2.40;;;24.00;92.30;;;24.71;80.70;100926.97;5226289;28;20048;-49
2023/10/11 09:14:15;;;;;;;6.05;2.30;;;24.00;92.80;;;24.75;80.15;100923.34;5223521;28;20515;-49
2023/10/11 09:16:48;;;;;;;4.88;2.20;;;24.00;92.70;;;24.82;79.95;100932.97;5231699;28;20044;-49
2023/10/11 09:19:21;;;;;;;5.63;2.20;;;24.00;92.60;;;24.82;78.95;100931.19;5227976;28;20048;-49
2023/10/11 09:22:03;;;;;;;6.07;2.72;;;24.00;92.20;;;24.81;78.53;100939.22;5227026;28;20102;-49
2023/10/11 09:24:41;;;;;;;5.30;2.28;;;24.00;92.00;;;24.84;78.44;100932.03;5226373;28;20117;-48
2023/10/11 09:27:19;;;;;;;5.20;2.35;;;24.10;91.90;;;24.95;78.46;100941.56;5242388;28;20139;-47
2023/10/11 09:29:54;;;;;;;6.93;2.20;;;24.10;91.90;;;25.03;78.69;100943.16;5226997;28;20051;-50
2023/10/11 09:32:33;;;;;;;6.25;2.20;;;24.20;92.00;;;25.16;78.31;100944.66;5224936;28;20063;-50
2023/10/11 09:35:23;;;;;;;5.22;2.00;;;24.30;91.90;;;25.14;77.60;100935.81;5220224;28;20048;-50
2023/10/11 09:37:57;;;;;;;5.05;2.08;;;24.40;91.50;;;25.21;77.98;100944.56;5229996;28;20067;-50
2023/10/11 09:40:31;;;;;;;5.78;1.88;;;24.40;91.60;;;25.26;77.62;100941.78;5239040;28;20106;-52
2023/10/11 09:43:04;;;;;;;5.85;2.00;;;24.50;91.40;;;25.33;77.50;100935.41;5222961;28;20059;-50
2023/10/11 09:45:42;;;;;;;5.43;1.98;;;24.50;91.40;;;25.42;78.15;100938.72;5226600;28;20048;-50
2023/10/11 09:48:17;;;;;;;7.78;2.22;;;24.60;91.70;;;25.52;77.19;100935.84;5237270;28;20507;-50
2023/10/11 09:50:52;;;;;;;4.18;2.08;;;24.60;91.20;;;25.60;77.55;100939.19;5221323;28;20036;-52
2023/10/11 09:53:25;;;;;;;4.18;2.00;;;24.70;91.40;;;25.67;77.37;100936.31;5224533;28;20534;-50
2023/10/11 09:56:04;;;;;;;4.70;1.92;;;24.80;91.30;;;25.80;77.11;100928.03;5225693;28;20044;-52
2023/10/11 09:58:43;;;;;;;6.13;2.30;;;24.90;91.50;;;25.84;75.43;100927.03;5225280;28;20055;-50
2023/10/11 10:01:27;;;;;;;5.22;1.98;;;24.90;90.40;;;25.89;75.28;100933.16;5224229;28;20052;-50
2023/10/11 10:04:06;;;;;;;4.57;2.00;;;25.00;90.30;;;26.03;75.19;100936.31;5223005;28;20045;-50
2023/10/11 10:06:38;;;;;;;4.55;2.10;;;25.10;90.10;;;26.15;74.48;100936.00;5219444;28;20052;-51
2023/10/11 10:09:18;;;;;;;4.50;1.92;;;25.20;89.80;;;26.21;73.92;100935.81;5218889;28;20110;-50
2023/10/11 10:12:22;;;;;;;5.65;1.90;;;25.30;89.20;;;26.29;73.37;100943.63;5225354;28;20052;-51
2023/10/11 10:15:14;;;;;;;5.00;1.90;;;25.40;88.50;;;26.40;72.79;100943.34;5221384;28;20313;-51
2023/10/11 10:18:22;;;;;;;5.18;2.03;;;25.50;88.10;;;26.41;72.02;100947.78;5237962;28;20564;-51
2023/10/11 10:21:02;;;;;;;5.53;2.20;;;25.60;87.20;;;26.44;71.48;100947.69;5232713;28;20405;-50
2023/10/11 10:23:38;;;;;;;4.15;2.17;;;25.50;86.20;;;26.46;71.55;100948.50;5225726;28;20412;-51
2023/10/11 10:26:38;;;;;;;5.47;1.92;;;25.60;86.10;;;26.44;71.68;100953.03;5223999;28;20109;-49
2023/10/11 10:29:13;;;;;;;4.72;1.77;;;25.60;86.10;;;26.44;72.19;100955.72;5214516;28;20079;-49
2023/10/11 10:32:08;;;;;;;3.97;1.67;;;25.60;86.50;;;26.44;73.16;100958.38;5225768;28;20048;-50
2023/10/11 10:34:43;;;;;;;3.38;1.55;;;25.60;87.20;;;26.48;72.88;100947.56;5226616;28;20056;-51
2023/10/11 10:37:55;;;;;;;5.07;1.88;;;25.60;86.90;;;26.57;71.95;100956.22;5222353;28;20044;-50
2023/10/11 10:40:27;;;;;;;4.65;1.83;;;25.70;86.30;;;26.64;72.98;100961.34;5217186;28;20523;-53
2023/10/11 10:43:23;;;;;;;4.07;1.75;;;25.70;87.00;;;26.74;73.44;100949.47;5226266;28;20090;-50
2023/10/11 10:45:59;;;;;;;4.10;1.80;;;25.80;87.50;;;26.82;72.45;100945.69;5214884;28;20056;-51
2023/10/11 10:48:31;;;;;;;4.10;1.88;;;25.90;86.70;;;26.91;71.65;100945.41;5225842;28;20132;-50
2023/10/11 10:51:05;;;;;;;4.90;2.08;;;26.00;86.00;;;27.01;71.50;100944.22;5218261;28;20052;-51
2023/10/11 10:53:38;;;;;;;3.90;1.65;;;26.10;85.80;;;27.11;70.88;100943.03;5223116;28;20086;-50
2023/10/11 10:56:21;;;;;;;4.57;1.95;;;26.20;85.20;;;27.26;70.59;100936.34;5224115;28;20057;-52
2023/10/11 10:59:07;;;;;;;5.05;1.98;;;26.30;84.70;;;27.38;69.74;100930.56;5232310;28;20454;-49
2023/10/11 11:01:40;;;;;;;4.63;1.73;;;26.40;83.90;;;27.45;69.05;100925.88;5242058;28;20051;-50
2023/10/11 11:04:13;;;;;;;3.83;1.98;;;26.50;83.00;;;27.49;67.75;100922.19;5224825;28;20404;-49
2023/10/11 11:06:49;;;;;;;4.93;1.67;;;26.60;81.60;;;27.52;68.06;100922.09;5214901;28;20046;-49
2023/10/11 11:09:25;;;;;;;3.63;1.70;;;26.60;82.00;;;27.52;68.01;100919.44;5224790;28;20057;-52
2023/10/11 11:12:14;;;;;;;6.90;1.88;;;26.60;81.50;;;27.58;68.07;100913.84;5224165;28;20052;-52
2023/10/11 11:14:54;;;;;;;4.18;1.60;;;26.70;81.70;;;27.61;68.22;100911.06;5242858;28;20151;-50